Time;durP1;ratioP1;P1;durP2;ratioP2;P2;SDS_P1;SDS_P2;PMS_P1;PMS_P2;Temp;Humidity;BMP_temperature;BMP_pressure;BME280_temperature;BME280_humidity;BME280_pressure;Samples;Min_cycle;Max_cycle;Signal;HPM_P1;HPM_P2
2023/07/17 00:00:40;;;;;;;6.50;2.50;;;;;;;;;;5114178;28;20024;-60
2023/07/17 00:03:05;;;;;;;5.57;2.40;;;;;;;;;;5113842;28;20027;-61
2023/07/17 00:05:30;;;;;;;5.00;2.47;;;;;;;;;;5114287;28;20019;-60
2023/07/17 00:07:55;;;;;;;5.73;2.17;;;;;;;;;;5114135;28;20122;-60
2023/07/17 00:10:21;;;;;;;6.37;2.70;;;;;;;;;;5114422;28;20028;-60
2023/07/17 00:12:46;;;;;;;5.20;2.10;;;;;;;;;;5113491;28;20027;-60
2023/07/17 00:15:11;;;;;;;6.50;2.70;;;;;;;;;;5114091;28;20020;-61
2023/07/17 00:17:36;;;;;;;4.97;2.33;;;;;;;;;;5113918;28;20743;-60
2023/07/17 00:20:05;;;;;;;6.03;2.30;;;;;;;;;;5114165;28;20421;-59
2023/07/17 00:22:30;;;;;;;5.68;2.47;;;;;;;;;;5112939;28;20470;-61
2023/07/17 00:24:56;;;;;;;6.43;2.47;;;;;;;;;;5113858;28;20034;-61
2023/07/17 00:27:21;;;;;;;7.23;2.83;;;;;;;;;;5113853;28;20015;-60
2023/07/17 00:29:46;;;;;;;7.00;2.63;;;;;;;;;;5113657;27;20016;-62
2023/07/17 00:32:12;;;;;;;6.80;2.40;;;;;;;;;;5113816;28;20019;-61
2023/07/17 00:34:38;;;;;;;6.45;2.50;;;;;;;;;;5101797;28;20028;-61
2023/07/17 00:37:03;;;;;;;6.97;2.60;;;;;;;;;;5093222;28;20019;-61
2023/07/17 00:39:29;;;;;;;4.87;2.30;;;;;;;;;;5093268;28;20098;-60
2023/07/17 00:41:54;;;;;;;7.50;2.77;;;;;;;;;;5093056;28;20438;-61
2023/07/17 00:44:19;;;;;;;5.03;2.40;;;;;;;;;;5092311;28;20095;-60
2023/07/17 00:46:45;;;;;;;5.07;2.30;;;;;;;;;;5092186;28;20534;-61
2023/07/17 00:49:11;;;;;;;5.00;2.40;;;;;;;;;;5093261;28;20505;-61
2023/07/17 00:51:37;;;;;;;6.68;2.72;;;;;;;;;;5093031;28;20096;-60
2023/07/17 00:54:02;;;;;;;5.50;2.30;;;;;;;;;;5092370;28;20031;-60
2023/07/17 00:56:28;;;;;;;6.38;2.58;;;;;;;;;;5100248;28;20094;-60
2023/07/17 00:58:54;;;;;;;5.65;2.30;;;;;;;;;;5113223;28;20068;-60
2023/07/17 01:01:19;;;;;;;9.27;3.20;;;;;;;;;;5113191;28;20020;-61
2023/07/17 01:03:44;;;;;;;5.20;2.27;;;;;;;;;;5112412;28;20050;-59
2023/07/17 01:06:09;;;;;;;7.23;2.73;;;;;;;;;;5112927;28;20777;-60
2023/07/17 01:08:34;;;;;;;6.17;2.67;;;;;;;;;;5113228;28;20073;-61
2023/07/17 01:11:00;;;;;;;5.77;2.63;;;;;;;;;;5112934;28;20019;-61
2023/07/17 01:13:25;;;;;;;6.37;2.70;;;;;;;;;;5112349;28;20027;-61
2023/07/17 01:15:50;;;;;;;5.10;2.63;;;;;;;;;;5113135;28;20053;-62
2023/07/17 01:18:15;;;;;;;6.40;2.53;;;;;;;;;;5112816;28;20153;-58
2023/07/17 01:20:41;;;;;;;5.05;2.08;;;;;;;;;;5112963;28;20093;-60
2023/07/17 01:23:06;;;;;;;6.10;2.95;;;;;;;;;;5112103;28;20524;-62
2023/07/17 01:25:31;;;;;;;7.05;2.90;;;;;;;;;;5112895;28;20023;-61
2023/07/17 01:27:57;;;;;;;7.90;3.10;;;;;;;;;;5112526;28;20421;-58
2023/07/17 01:30:22;;;;;;;5.90;2.90;;;;;;;;;;5112690;28;20026;-60
2023/07/17 01:32:47;;;;;;;6.30;2.73;;;;;;;;;;5111818;28;20064;-61
2023/07/17 01:35:12;;;;;;;8.27;2.85;;;;;;;;;;5112576;28;20012;-60
2023/07/17 01:37:38;;;;;;;6.33;2.83;;;;;;;;;;5112543;28;20023;-60
2023/07/17 01:40:03;;;;;;;5.60;2.70;;;;;;;;;;5106680;28;20020;-59
2023/07/17 01:42:28;;;;;;;6.65;2.65;;;;;;;;;;5091310;28;20051;-60
2023/07/17 01:44:53;;;;;;;7.00;2.73;;;;;;;;;;5092294;28;20060;-60
2023/07/17 01:47:18;;;;;;;5.25;2.65;;;;;;;;;;5093716;28;20396;-59
2023/07/17 01:49:44;;;;;;;5.30;2.57;;;;;;;;;;5093900;28;20020;-61
2023/07/17 01:52:10;;;;;;;5.90;2.90;;;;;;;;;;5092852;28;20460;-60
2023/07/17 01:54:35;;;;;;;;;;;;;;;;;;5092476;28;20028;-60
2023/07/17 01:57:00;;;;;;;7.18;2.80;;;;;;;;;;5110415;28;19910;-61
2023/07/17 01:59:25;;;;;;;6.53;2.37;;;;;;;;;;5111991;28;20054;-60
2023/07/17 02:01:50;;;;;;;8.33;3.37;;;;;;;;;;5111949;28;20046;-60
2023/07/17 02:04:16;;;;;;;6.28;2.80;;;;;;;;;;5111214;28;20352;-59
2023/07/17 02:06:41;;;;;;;7.33;2.90;;;;;;;;;;5112057;28;20028;-60
2023/07/17 02:09:06;;;;;;;6.82;2.83;;;;;;;;;;5112133;28;20099;-61
2023/07/17 02:11:32;;;;;;;6.45;3.00;;;;;;;;;;5112023;28;20034;-62
2023/07/17 02:13:57;;;;;;;6.33;2.70;;;;;;;;;;5110491;28;20026;-61
2023/07/17 02:16:22;;;;;;;6.10;2.77;;;;;;;;;;5111795;28;20033;-60
2023/07/17 02:18:47;;;;;;;5.10;2.40;;;;;;;;;;5112029;28;20020;-62
2023/07/17 02:21:12;;;;;;;4.97;2.28;;;;;;;;;;5111884;28;20554;-62
2023/07/17 02:23:38;;;;;;;5.60;2.90;;;;;;;;;;5110919;28;20024;-60
2023/07/17 02:26:03;;;;;;;5.70;2.70;;;;;;;;;;5113095;28;20437;-61
2023/07/17 02:28:28;;;;;;;5.20;2.70;;;;;;;;;;5112951;28;20075;-60
2023/07/17 02:30:53;;;;;;;5.97;2.87;;;;;;;;;;5112629;28;20536;-60
2023/07/17 02:33:18;;;;;;;5.80;2.67;;;;;;;;;;5111082;28;20098;-60
2023/07/17 02:35:44;;;;;;;6.37;2.63;;;;;;;;;;5111645;28;20024;-60
2023/07/17 02:38:09;;;;;;;7.00;2.67;;;;;;;;;;5111415;28;20022;-60
2023/07/17 02:40:34;;;;;;;5.93;2.80;;;;;;;;;;5111326;28;20015;-61
2023/07/17 02:42:59;;;;;;;5.20;2.50;;;;;;;;;;5110430;28;20047;-61
2023/07/17 02:45:24;;;;;;;5.43;2.20;;;;;;;;;;5111419;28;20026;-61
2023/07/17 02:47:49;;;;;;;5.40;2.70;;;;;;;;;;5109831;28;20023;-60
2023/07/17 02:50:15;;;;;;;5.23;2.77;;;;;;;;;;5111346;28;20490;-62
2023/07/17 02:52:41;;;;;;;7.87;2.60;;;;;;;;;;5110557;28;20552;-60
2023/07/17 02:55:06;;;;;;;6.88;2.85;;;;;;;;;;5111166;28;20027;-61
2023/07/17 02:57:32;;;;;;;5.72;2.85;;;;;;;;;;5111229;28;20145;-62
2023/07/17 02:59:57;;;;;;;5.85;2.63;;;;;;;;;;5110890;28;20119;-61
2023/07/17 03:02:23;;;;;;;6.70;2.43;;;;;;;;;;5108997;28;20018;-60
2023/07/17 03:04:48;;;;;;;5.30;2.60;;;;;;;;;;5091015;28;20038;-62
2023/07/17 03:07:13;;;;;;;8.63;3.20;;;;;;;;;;5090683;28;20016;-60
2023/07/17 03:09:38;;;;;;;7.77;2.70;;;;;;;;;;5090746;28;20476;-61
2023/07/17 03:12:03;;;;;;;5.88;2.53;;;;;;;;;;5090768;28;20032;-60
2023/07/17 03:14:29;;;;;;;6.28;2.78;;;;;;;;;;5089727;28;20059;-63
2023/07/17 03:16:54;;;;;;;7.50;2.97;;;;;;;;;;5090844;28;20103;-61
2023/07/17 03:19:19;;;;;;;6.77;3.07;;;;;;;;;;5090609;28;20023;-61
2023/07/17 03:21:44;;;;;;;6.73;3.00;;;;;;;;;;5090535;28;20032;-60
2023/07/17 03:24:09;;;;;;;5.95;2.90;;;;;;;;;;5089593;28;20036;-62
2023/07/17 03:26:35;;;;;;;6.68;2.67;;;;;;;;;;5094740;28;20016;-60
2023/07/17 03:29:00;;;;;;;6.35;2.63;;;;;;;;;;5094512;28;20012;-62
2023/07/17 03:31:25;;;;;;;5.70;2.53;;;;;;;;;;5094825;28;20533;-62
2023/07/17 03:33:50;;;;;;;7.23;3.00;;;;;;;;;;5094005;28;20536;-60
2023/07/17 03:36:15;;;;;;;5.73;2.70;;;;;;;;;;5094278;28;20039;-59
2023/07/17 03:38:41;;;;;;;5.93;2.40;;;;;;;;;;5094590;28;20569;-59
2023/07/17 03:41:06;;;;;;;5.65;2.60;;;;;;;;;;5094665;28;20121;-62
2023/07/17 03:43:31;;;;;;;7.17;2.70;;;;;;;;;;5093575;28;20028;-60
2023/07/17 03:45:57;;;;;;;6.55;2.80;;;;;;;;;;5094530;28;20372;-62
2023/07/17 03:48:22;;;;;;;6.90;2.60;;;;;;;;;;5094148;28;20012;-62
2023/07/17 03:50:47;;;;;;;7.03;2.83;;;;;;;;;;5094294;28;20031;-62
2023/07/17 03:53:13;;;;;;;6.15;2.70;;;;;;;;;;5096427;28;20030;-61
2023/07/17 03:55:38;;;;;;;4.83;2.53;;;;;;;;;;5114234;28;20039;-62
2023/07/17 03:58:04;;;;;;;6.03;2.47;;;;;;;;;;5115150;28;20065;-61
2023/07/17 04:00:30;;;;;;;4.90;2.75;;;;;;;;;;5115993;28;20421;-62
2023/07/17 04:02:55;;;;;;;5.05;2.38;;;;;;;;;;5115349;28;20467;-61
2023/07/17 04:05:20;;;;;;;7.03;3.10;;;;;;;;;;5115990;28;20019;-61
2023/07/17 04:07:45;;;;;;;6.33;3.00;;;;;;;;;;5114851;28;20155;-61
2023/07/17 04:10:10;;;;;;;5.88;2.42;;;;;;;;;;5112433;27;20063;-61
2023/07/17 04:12:35;;;;;;;5.70;3.00;;;;;;;;;;5113727;28;20015;-60
2023/07/17 04:15:00;;;;;;;6.53;2.70;;;;;;;;;;5114095;27;20436;-61
2023/07/17 04:17:26;;;;;;;6.83;2.73;;;;;;;;;;5114318;28;20016;-61
2023/07/17 04:19:51;;;;;;;6.30;3.00;;;;;;;;;;5114115;28;20445;-61
2023/07/17 04:22:16;;;;;;;7.13;3.20;;;;;;;;;;5113962;28;20020;-62
2023/07/17 04:24:41;;;;;;;5.83;3.03;;;;;;;;;;5113460;28;20495;-59
2023/07/17 04:27:06;;;;;;;6.27;3.40;;;;;;;;;;5113938;28;20043;-61
2023/07/17 04:29:32;;;;;;;5.63;2.60;;;;;;;;;;5114108;28;20023;-59
2023/07/17 04:31:57;;;;;;;6.00;2.50;;;;;;;;;;5114046;28;20496;-62
2023/07/17 04:34:22;;;;;;;5.82;2.70;;;;;;;;;;5113325;28;20020;-61
2023/07/17 04:36:48;;;;;;;6.27;3.07;;;;;;;;;;5113472;28;20471;-61
2023/07/17 04:39:14;;;;;;;6.93;2.95;;;;;;;;;;5113826;27;20020;-61
2023/07/17 04:41:39;;;;;;;6.67;2.90;;;;;;;;;;5113573;28;20069;-61
2023/07/17 04:44:04;;;;;;;7.85;3.00;;;;;;;;;;5094837;27;20464;-63
2023/07/17 04:46:29;;;;;;;7.07;2.87;;;;;;;;;;5093429;28;20022;-63
2023/07/17 04:48:54;;;;;;;6.60;2.93;;;;;;;;;;5092602;28;20032;-61
2023/07/17 04:51:20;;;;;;;6.23;2.87;;;;;;;;;;5093012;28;20042;-62
2023/07/17 04:53:45;;;;;;;5.63;2.95;;;;;;;;;;5111371;28;20020;-62
2023/07/17 04:56:11;;;;;;;6.50;2.93;;;;;;;;;;5113484;28;20072;-63
2023/07/17 04:58:36;;;;;;;5.82;2.95;;;;;;;;;;5113239;28;20023;-61
2023/07/17 05:01:01;;;;;;;8.23;3.33;;;;;;;;;;5113604;28;20007;-61
2023/07/17 05:03:29;;;;;;;6.78;3.08;;;;;;;;;;5112552;28;20410;-61
2023/07/17 05:05:55;;;;;;;6.57;3.03;;;;;;;;;;5113229;27;20098;-61
2023/07/17 05:08:20;;;;;;;7.03;2.58;;;;;;;;;;5113081;28;20084;-61
2023/07/17 05:10:53;;;;;;;6.63;3.40;;;;;;;;;;5113221;28;20026;-60
2023/07/17 05:13:18;;;;;;;7.95;3.20;;;;;;;;;;5112564;28;20027;-62
2023/07/17 05:15:43;;;;;;;10.32;3.47;;;;;;;;;;5111564;28;20073;-61
2023/07/17 05:18:08;;;;;;;7.70;2.90;;;;;;;;;;5113257;28;20030;-61
2023/07/17 05:20:33;;;;;;;7.10;3.20;;;;;;;;;;5112936;28;20011;-62
2023/07/17 05:22:59;;;;;;;6.50;3.10;;;;;;;;;;5112064;28;20053;-62
2023/07/17 05:25:24;;;;;;;8.60;3.20;;;;;;;;;;5112762;28;20038;-62
2023/07/17 05:27:51;;;;;;;9.07;2.92;;;;;;;;;;5112787;28;20019;-61
2023/07/17 05:30:16;;;;;;;5.78;2.63;;;;;;;;;;5112861;28;20544;-60
2023/07/17 05:32:41;;;;;;;5.77;2.93;;;;;;;;;;5095059;28;20165;-60
2023/07/17 05:35:07;;;;;;;6.30;2.87;;;;;;;;;;5092958;28;20118;-61
2023/07/17 05:37:32;;;;;;;6.82;3.00;;;;;;;;;;5093449;28;20028;-60
2023/07/17 05:39:57;;;;;;;5.85;3.00;;;;;;;;;;5093125;28;20024;-62
2023/07/17 05:42:22;;;;;;;6.18;2.92;;;;;;;;;;5091979;28;20419;-62
2023/07/17 05:44:47;;;;;;;7.30;3.05;;;;;;;;;;5091392;28;20027;-64
2023/07/17 05:47:12;;;;;;;6.97;3.17;;;;;;;;;;5091398;28;20158;-62
2023/07/17 05:49:38;;;;;;;6.30;2.97;;;;;;;;;;5091743;28;20020;-61
2023/07/17 05:52:04;;;;;;;5.75;2.92;;;;;;;;;;5104667;28;20027;-61
2023/07/17 05:54:29;;;;;;;7.68;3.30;;;;;;;;;;5111629;28;20028;-63
2023/07/17 05:56:54;;;;;;;5.17;2.60;;;;;;;;;;5109886;28;20076;-61
2023/07/17 05:59:19;;;;;;;6.00;3.13;;;;;;;;;;5091815;28;20161;-61
2023/07/17 06:01:44;;;;;;;7.53;2.93;;;;;;;;;;5092063;28;20535;-59
2023/07/17 06:04:10;;;;;;;7.10;3.00;;;;;;;;;;5090616;28;20078;-60
2023/07/17 06:06:35;;;;;;;8.23;3.20;;;;;;;;;;5092360;28;20081;-62
2023/07/17 06:09:01;;;;;;;7.97;3.10;;;;;;;;;;5091177;28;20763;-61
2023/07/17 06:11:26;;;;;;;9.60;3.13;;;;;;;;;;5091126;28;20093;-62
2023/07/17 06:13:51;;;;;;;8.13;2.67;;;;;;;;;;5091928;28;20468;-61
2023/07/17 06:16:17;;;;;;;7.40;3.00;;;;;;;;;;5093007;28;20080;-60
2023/07/17 06:18:42;;;;;;;6.40;2.78;;;;;;;;;;5092010;28;20464;-62
2023/07/17 06:21:07;;;;;;;8.57;2.80;;;;;;;;;;5091340;28;20099;-61
2023/07/17 06:23:32;;;;;;;;;;;;;;;;;;5090633;28;20039;-60
2023/07/17 06:25:57;;;;;;;6.65;3.13;;;;;;;;;;5110393;28;19907;-62
2023/07/17 06:28:22;;;;;;;7.43;2.90;;;;;;;;;;5112002;28;20059;-60
2023/07/17 06:30:48;;;;;;;;;;;;;;;;;;5112430;28;20016;-62
2023/07/17 06:33:13;;;;;;;6.10;3.00;;;;;;;;;;5111097;28;19903;-62
2023/07/17 06:35:39;;;;;;;8.15;3.40;;;;;;;;;;5111403;28;20487;-62
2023/07/17 06:38:04;;;;;;;6.77;3.17;;;;;;;;;;5111662;28;20015;-60
2023/07/17 06:40:29;;;;;;;;;;;;;;;;;;5112069;28;20483;-61
2023/07/17 06:42:55;;;;;;;7.85;3.75;;;;;;;;;;5092738;28;20363;-61
2023/07/17 06:45:20;;;;;;;7.32;3.15;;;;;;;;;;5090052;28;20081;-61
2023/07/17 06:47:45;;;;;;;;;;;;;;;;;;5091724;28;20016;-62
2023/07/17 06:50:10;;;;;;;8.43;3.13;;;;;;;;;;5101043;28;19951;-60
2023/07/17 06:52:38;;;;;;;7.20;3.47;;;;;;;;;;5110646;28;20458;-61
2023/07/17 06:55:03;;;;;;;8.98;3.35;;;;;;;;;;5111020;28;20417;-62
2023/07/17 06:57:28;;;;;;;;;;;;;;;;;;5111799;28;20425;-60
2023/07/17 06:59:53;;;;;;;6.93;3.13;;;;;;;;;;5111263;28;20320;-62
2023/07/17 07:02:18;;;;;;;;;;;;;;;;;;5111613;28;20012;-62
2023/07/17 07:04:43;;;;;;;7.45;3.42;;;;;;;;;;5110525;28;19911;-62
2023/07/17 07:07:08;;;;;;;;;;;;;;;;;;5111613;28;20042;-62
2023/07/17 07:09:34;;;;;;;7.65;3.67;;;;;;;;;;5111194;28;19911;-62
2023/07/17 07:11:59;;;;;;;7.50;3.20;;;;;;;;;;5106294;28;20060;-62
2023/07/17 07:14:24;;;;;;;;;;;;;;;;;;5089954;28;20465;-61
2023/07/17 07:16:49;;;;;;;6.45;3.33;;;;;;;;;;5111173;28;19904;-62
2023/07/17 07:19:14;;;;;;;8.57;3.45;;;;;;;;;;5111142;28;20116;-61
2023/07/17 07:21:40;;;;;;;;;;;;;;;;;;5111349;28;20564;-62
2023/07/17 07:24:06;;;;;;;6.97;3.60;;;;;;;;;;5110289;28;19916;-61
2023/07/17 07:26:31;;;;;;;;;;;;;;;;;;5111402;28;20016;-63
2023/07/17 07:28:56;;;;;;;7.20;3.80;;;;;;;;;;5110606;28;19910;-62
2023/07/17 07:31:21;;;;;;;;;;;;;;;;;;5111680;28;20020;-61
2023/07/17 07:33:46;;;;;;;8.13;3.53;;;;;;;;;;5110150;28;19994;-62
2023/07/17 07:36:12;;;;;;;7.43;3.60;;;;;;;;;;5111085;28;20090;-61
2023/07/17 07:38:37;;;;;;;;;;;;;;;;;;5111313;28;20535;-59
2023/07/17 07:41:02;;;;;;;8.98;3.70;;;;;;;;;;5110868;28;19911;-61
2023/07/17 07:43:28;;;;;;;6.72;3.72;;;;;;;;;;5110523;28;20383;-61
2023/07/17 07:45:53;;;;;;;;;;;;;;;;;;5111546;28;20012;-61
2023/07/17 07:48:18;;;;;;;7.47;3.72;;;;;;;;;;5098475;28;19927;-62
2023/07/17 07:50:43;;;;;;;;;;;;;;;;;;5089628;28;20024;-60
2023/07/17 07:53:08;;;;;;;7.30;3.60;;;;;;;;;;5090627;28;19904;-63
2023/07/17 07:55:33;;;;;;;7.05;3.78;;;;;;;;;;5092480;28;20015;-61
2023/07/17 07:57:59;;;;;;;;;;;;;;;;;;5111249;28;20387;-62
2023/07/17 08:00:24;;;;;;;6.63;3.60;;;;;;;;;;5110604;28;19905;-63
2023/07/17 08:02:50;;;;;;;;;;;;;;;;;;5110460;28;20027;-62
2023/07/17 08:05:15;;;;;;;7.20;3.60;;;;;;;;;;5110368;28;20800;-61
2023/07/17 08:07:40;;;;;;;;;;;;;;;;;;5109490;28;20027;-60
2023/07/17 08:10:06;;;;;;;8.73;3.78;;;;;;;;;;5110862;28;19907;-61
2023/07/17 08:12:31;;;;;;;8.37;3.97;;;;;;;;;;5114141;28;20019;-61
2023/07/17 08:14:56;;;;;;;6.57;3.57;;;;;;;;;;5114801;28;20445;-62
2023/07/17 08:17:21;;;;;;;7.67;3.23;;;;;;;;;;5114410;28;20920;-61
2023/07/17 08:19:46;;;;;;;;;;;;;;;;;;5116315;28;20027;-60
2023/07/17 08:22:12;;;;;;;8.20;3.35;;;;;;;;;;5115444;28;19910;-61
2023/07/17 08:24:37;;;;;;;;;;;;;;;;;;5117408;28;20432;-63
2023/07/17 08:27:02;;;;;;;7.40;3.47;;;;;;;;;;5118507;28;19904;-62
2023/07/17 08:29:27;;;;;;;;;;;;;;;;;;5117914;28;20016;-62
2023/07/17 08:31:53;;;;;;;7.18;3.70;;;;;;;;;;5114549;28;20371;-60
2023/07/17 08:34:18;;;;;;;;;;;;;;;;;;5114323;28;20020;-60
2023/07/17 08:36:43;;;;;;;9.53;4.10;;;;;;;;;;5106395;28;20299;-60
2023/07/17 08:39:09;;;;;;;;;;;;;;;;;;5093716;28;20024;-60
2023/07/17 08:41:35;;;;;;;7.25;3.72;;;;;;;;;;5093305;28;19915;-61
2023/07/17 08:44:00;;;;;;;;;;;;;;;;;;5092991;28;20032;-61
2023/07/17 08:46:25;;;;;;;7.82;3.97;;;;;;;;;;5095247;28;19904;-62
2023/07/17 08:48:50;;;;;;;;;;;;;;;;;;5114026;28;20062;-62
2023/07/17 08:51:16;;;;;;;9.00;3.90;;;;;;;;;;5113511;28;19935;-60
2023/07/17 08:53:44;;;;;;;9.13;4.15;;;;;;;;;;5096132;28;20031;-61
2023/07/17 08:56:11;;;;;;;7.07;4.00;;;;;;;;;;5113019;28;20015;-61
2023/07/17 08:58:36;;;;;;;8.07;4.20;;;;;;;;;;5113380;28;20008;-62
2023/07/17 09:01:01;;;;;;;;;;;;;;;;;;5112512;28;20045;-62
2023/07/17 09:03:28;;;;;;;9.50;4.00;;;;;;;;;;5110686;28;19945;-61
2023/07/17 09:05:53;;;;;;;;;;;;;;;;;;5113782;28;20034;-62
2023/07/17 09:08:18;;;;;;;7.32;3.85;;;;;;;;;;5113115;28;19904;-61
2023/07/17 09:10:43;;;;;;;8.00;3.87;;;;;;;;;;5112828;28;20016;-61
2023/07/17 09:13:09;;;;;;;;;;;;;;;;;;5091049;28;20035;-63
2023/07/17 09:15:34;;;;;;;7.68;3.75;;;;;;;;;;5113094;28;20553;-62
2023/07/17 09:17:59;;;;;;;;;;;;;;;;;;5113425;28;20145;-60
2023/07/17 09:20:24;;;;;;;7.03;3.53;;;;;;;;;;5113069;28;19988;-61
2023/07/17 09:22:49;;;;;;;;;;;;;;;;;;5112748;28;20390;-61
2023/07/17 09:25:15;;;;;;;8.35;3.90;;;;;;;;;;5112771;28;19904;-62
2023/07/17 09:27:40;;;;;;;;;;;;;;;;;;5113654;28;20055;-63
2023/07/17 09:30:09;;;;;;;7.13;4.10;;;;;;;;;;5113056;28;19908;-60
2023/07/17 09:32:34;;;;;;;7.88;3.67;;;;;;;;;;5112352;28;20098;-61
2023/07/17 09:34:59;;;;;;;;;;;;;;;;;;5113205;28;20456;-62
2023/07/17 09:37:29;;;;;;;6.60;3.42;;;;;;;;;;5112409;28;19910;-61
2023/07/17 09:39:54;;;;;;;8.18;3.70;;;;;;;;;;5102210;28;20036;-61
2023/07/17 09:42:19;;;;;;;;;;;;;;;;;;5091469;28;20013;-61
2023/07/17 09:44:44;;;;;;;8.93;3.70;;;;;;;;;;5111973;28;19911;-62
2023/07/17 09:47:09;;;;;;;;;;;;;;;;;;5112921;28;20502;-62
2023/07/17 09:49:36;;;;;;;7.40;3.20;;;;;;;;;;5096811;28;20002;-61
2023/07/17 09:52:01;;;;;;;9.48;3.28;;;;;;;;;;5091878;28;20024;-61
2023/07/17 09:54:26;;;;;;;;;;;;;;;;;;5091936;28;20027;-61
2023/07/17 09:56:52;;;;;;;7.93;3.60;;;;;;;;;;5091810;28;20397;-60
2023/07/17 09:59:19;;;;;;;6.50;3.10;;;;;;;;;;5091853;28;20525;-60
2023/07/17 10:01:47;;;;;;;7.75;3.60;;;;;;;;;;5091892;28;20479;-62
2023/07/17 10:04:15;;;;;;;8.07;3.63;;;;;;;;;;5091148;28;20034;-61
2023/07/17 10:06:42;;;;;;;6.22;3.55;;;;;;;;;;5091549;28;20030;-61
2023/07/17 10:09:08;;;;;;;7.57;3.60;;;;;;;;;;5091350;28;20357;-62
2023/07/17 10:11:35;;;;;;;7.53;3.67;;;;;;;;;;5092036;28;20027;-62
2023/07/17 10:14:00;;;;;;;;;;;;;;;;;;5091874;28;20024;-61
2023/07/17 10:16:26;;;;;;;7.22;3.40;;;;;;;;;;5091521;28;19923;-61
2023/07/17 10:18:55;;;;;;;8.20;3.80;;;;;;;;;;5091361;28;20020;-63
2023/07/17 10:21:20;;;;;;;6.40;3.30;;;;;;;;;;5091147;28;20026;-60
2023/07/17 10:23:45;;;;;;;;;;;;;;;;;;5091473;28;20430;-62
2023/07/17 10:26:11;;;;;;;5.97;3.00;;;;;;;;;;5091515;28;19911;-61
2023/07/17 10:28:37;;;;;;;7.85;3.63;;;;;;;;;;5091375;28;20020;-61
2023/07/17 10:31:18;;;;;;;6.20;3.37;;;;;;;;;;5090085;28;20019;-60
2023/07/17 10:33:49;;;;;;;6.95;3.08;;;;;;;;;;5090554;28;20430;-61
2023/07/17 10:36:14;;;;;;;7.53;3.47;;;;;;;;;;5092782;28;20099;-60
2023/07/17 10:38:40;;;;;;;9.30;3.73;;;;;;;;;;5092370;28;20039;-62
2023/07/17 10:41:10;;;;;;;10.60;3.63;;;;;;;;;;5093954;28;20035;-62
2023/07/17 10:43:35;;;;;;;7.57;3.45;;;;;;;;;;5090937;28;20035;-63
2023/07/17 10:46:00;;;;;;;;;;;;;;;;;;5111018;28;20071;-62
2023/07/17 10:48:25;;;;;;;7.43;3.60;;;;;;;;;;5111495;28;19904;-63
2023/07/17 10:50:52;;;;;;;7.00;3.50;;;;;;;;;;5111074;28;20020;-61
2023/07/17 10:53:18;;;;;;;6.88;2.92;;;;;;;;;;5110812;28;20063;-62
2023/07/17 10:55:43;;;;;;;7.28;3.20;;;;;;;;;;5111409;28;20096;-62
2023/07/17 10:58:09;;;;;;;7.28;3.13;;;;;;;;;;5105137;28;20047;-62
2023/07/17 11:00:34;;;;;;;9.60;3.85;;;;;;;;;;5090923;28;20456;-62
2023/07/17 11:02:59;;;;;;;7.03;3.30;;;;;;;;;;5090014;28;20077;-61
2023/07/17 11:05:25;;;;;;;6.85;2.95;;;;;;;;;;5090705;28;20016;-61
2023/07/17 11:07:50;;;;;;;6.40;3.47;;;;;;;;;;5090918;28;20070;-61
2023/07/17 11:10:15;;;;;;;7.73;3.40;;;;;;;;;;5091042;28;20027;-61
2023/07/17 11:12:40;;;;;;;8.57;3.47;;;;;;;;;;5090016;28;20414;-60
2023/07/17 11:15:16;;;;;;;9.05;3.70;;;;;;;;;;5106977;28;20023;-63
2023/07/17 11:17:41;;;;;;;8.55;3.22;;;;;;;;;;5090819;28;20112;-60
2023/07/17 11:20:07;;;;;;;6.97;3.40;;;;;;;;;;5091211;28;20436;-62
2023/07/17 11:22:32;;;;;;;7.80;3.80;;;;;;;;;;5090297;28;20022;-62
2023/07/17 11:24:57;;;;;;;7.30;3.35;;;;;;;;;;5090705;28;20020;-61
2023/07/17 11:27:23;;;;;;;8.50;3.58;;;;;;;;;;5091171;28;20076;-62
2023/07/17 11:29:50;;;;;;;5.47;2.97;;;;;;;;;;5090948;28;20106;-62
2023/07/17 11:32:17;;;;;;;6.60;3.20;;;;;;;;;;5090391;28;20524;-61
2023/07/17 11:34:42;;;;;;;7.85;3.60;;;;;;;;;;5090165;28;20031;-62
2023/07/17 11:37:07;;;;;;;7.87;3.67;;;;;;;;;;5090585;28;20360;-61
2023/07/17 11:39:32;;;;;;;6.20;3.15;;;;;;;;;;5090817;28;20019;-63
2023/07/17 11:41:58;;;;;;;8.20;3.20;;;;;;;;;;5090409;28;20032;-62
2023/07/17 11:44:30;;;;;;;8.45;3.42;;;;;;;;;;5097918;28;20031;-62
2023/07/17 11:46:56;;;;;;;7.40;3.30;;;;;;;;;;5113507;28;20122;-62
2023/07/17 11:49:21;;;;;;;8.23;3.67;;;;;;;;;;5102790;27;20332;-62
2023/07/17 11:51:46;;;;;;;7.78;3.53;;;;;;;;;;5093333;28;20021;-62
2023/07/17 11:54:11;;;;;;;7.32;3.60;;;;;;;;;;5093986;28;20020;-62
2023/07/17 11:56:37;;;;;;;6.97;3.23;;;;;;;;;;5094153;28;20028;-62
2023/07/17 11:59:03;;;;;;;6.57;3.03;;;;;;;;;;5093097;28;20020;-62
2023/07/17 12:01:28;;;;;;;8.07;3.70;;;;;;;;;;5094228;28;20093;-62
2023/07/17 12:03:53;;;;;;;8.10;3.70;;;;;;;;;;5093570;28;20028;-62
2023/07/17 12:06:18;;;;;;;6.95;3.70;;;;;;;;;;5094255;28;20984;-63
2023/07/17 12:08:44;;;;;;;7.97;3.63;;;;;;;;;;5094277;28;20082;-60
2023/07/17 12:11:09;;;;;;;5.90;3.47;;;;;;;;;;5093878;28;20484;-62
2023/07/17 12:13:34;;;;;;;7.13;3.40;;;;;;;;;;5093503;28;20032;-62
2023/07/17 12:16:00;;;;;;;7.77;3.30;;;;;;;;;;5093992;28;20028;-61
2023/07/17 12:18:25;;;;;;;;;;;;;;;;;;5094516;28;20024;-62
2023/07/17 12:20:50;;;;;;;8.55;3.08;;;;;;;;;;5093669;28;19904;-61
2023/07/17 12:23:15;;;;;;;;;;;;;;;;;;5093338;28;20119;-61
2023/07/17 12:25:42;;;;;;;8.82;3.47;;;;;;;;;;5093658;28;19908;-62
2023/07/17 12:28:08;;;;;;;7.13;3.50;;;;;;;;;;5093515;28;20403;-62
2023/07/17 12:30:33;;;;;;;;;;;;;;;;;;5094029;28;20024;-62
2023/07/17 12:32:58;;;;;;;9.25;3.47;;;;;;;;;;5093195;28;19991;-63
2023/07/17 12:35:23;;;;;;;;;;;;;;;;;;5094206;28;20008;-63
2023/07/17 12:37:49;;;;;;;7.13;3.10;;;;;;;;;;5093459;28;19911;-61
2023/07/17 12:40:14;;;;;;;;;;;;;;;;;;5094192;28;20089;-60
2023/07/17 12:42:39;;;;;;;7.95;3.50;;;;;;;;;;5093225;28;19904;-61
2023/07/17 12:45:05;;;;;;;8.13;3.80;;;;;;;;;;5114013;28;20035;-61
2023/07/17 12:47:30;;;;;;;;;;;;;;;;;;5119872;28;20433;-60
2023/07/17 12:49:55;;;;;;;7.22;3.25;;;;;;;;;;5119569;28;19911;-62
2023/07/17 12:52:20;;;;;;;;;;;;;;;;;;5116674;28;20049;-62
2023/07/17 12:54:45;;;;;;;7.43;3.13;;;;;;;;;;5113194;27;20331;-62
2023/07/17 12:57:10;;;;;;;;;;;;;;;;;;5107302;28;20024;-59
2023/07/17 12:59:35;;;;;;;7.20;3.33;;;;;;;;;;5092890;28;20330;-61
2023/07/17 13:02:01;;;;;;;6.23;3.43;;;;;;;;;;5093002;28;20045;-60
2023/07/17 13:04:26;;;;;;;6.33;2.80;;;;;;;;;;5092063;28;20458;-61
2023/07/17 13:06:51;;;;;;;8.83;3.60;;;;;;;;;;5092931;28;20035;-61
2023/07/17 13:09:16;;;;;;;6.80;2.97;;;;;;;;;;5092877;28;20383;-59
2023/07/17 13:11:41;;;;;;;7.67;3.77;;;;;;;;;;5092765;28;20020;-62
2023/07/17 13:14:07;;;;;;;8.05;3.30;;;;;;;;;;5092518;28;20020;-61
2023/07/17 13:16:33;;;;;;;8.48;3.45;;;;;;;;;;5090164;28;20032;-62
2023/07/17 13:18:58;;;;;;;8.57;3.40;;;;;;;;;;5091746;28;20383;-61
2023/07/17 13:21:23;;;;;;;10.33;3.57;;;;;;;;;;5092856;28;20110;-61
2023/07/17 13:23:48;;;;;;;8.47;3.60;;;;;;;;;;5089599;28;20020;-61
2023/07/17 13:26:14;;;;;;;7.05;3.22;;;;;;;;;;5092296;28;20376;-61
2023/07/17 13:28:39;;;;;;;7.53;3.50;;;;;;;;;;5091914;28;20051;-60
2023/07/17 13:31:04;;;;;;;10.07;3.63;;;;;;;;;;5091689;28;20047;-62
2023/07/17 13:33:29;;;;;;;8.37;3.20;;;;;;;;;;5091932;28;20112;-62
2023/07/17 13:35:55;;;;;;;7.00;3.60;;;;;;;;;;5092535;28;20800;-61
2023/07/17 13:38:20;;;;;;;7.30;3.60;;;;;;;;;;5092239;28;20048;-60
2023/07/17 13:40:46;;;;;;;6.63;3.30;;;;;;;;;;5092201;28;20490;-60
2023/07/17 13:43:12;;;;;;;9.97;3.70;;;;;;;;;;5103013;28;20020;-63
2023/07/17 13:45:37;;;;;;;6.55;3.33;;;;;;;;;;5112456;28;20090;-61
2023/07/17 13:48:03;;;;;;;8.20;3.83;;;;;;;;;;5112943;28;20479;-61
2023/07/17 13:50:28;;;;;;;8.18;3.58;;;;;;;;;;5112630;28;20107;-63
2023/07/17 13:52:53;;;;;;;7.03;3.20;;;;;;;;;;5111593;28;20042;-62
2023/07/17 13:55:18;;;;;;;;;;;;;;;;;;5112420;28;20034;-61
2023/07/17 13:57:44;;;;;;;8.80;3.60;;;;;;;;;;5112155;28;20371;-60
2023/07/17 14:00:09;;;;;;;7.87;3.47;;;;;;;;;;5112296;28;20023;-62
2023/07/17 14:02:34;;;;;;;7.65;3.40;;;;;;;;;;5111978;28;20023;-60
2023/07/17 14:04:59;;;;;;;6.90;3.23;;;;;;;;;;5111806;28;20035;-62
2023/07/17 14:07:25;;;;;;;7.60;3.30;;;;;;;;;;5112126;28;20122;-63
2023/07/17 14:09:50;;;;;;;6.43;3.10;;;;;;;;;;5111342;28;20023;-62
2023/07/17 14:12:15;;;;;;;9.40;3.50;;;;;;;;;;5111921;28;20019;-62
2023/07/17 14:14:40;;;;;;;8.83;3.50;;;;;;;;;;5111601;28;20015;-62
2023/07/17 14:17:05;;;;;;;5.87;3.23;;;;;;;;;;5112113;28;20504;-62
2023/07/17 14:19:31;;;;;;;5.50;3.13;;;;;;;;;;5111829;28;20089;-62
2023/07/17 14:21:56;;;;;;;5.63;3.10;;;;;;;;;;5111691;28;20169;-60
2023/07/17 14:24:22;;;;;;;6.43;3.10;;;;;;;;;;5111233;28;20036;-60
2023/07/17 14:26:47;;;;;;;7.93;3.28;;;;;;;;;;5111935;28;20024;-61
2023/07/17 14:29:12;;;;;;;6.25;3.00;;;;;;;;;;5111582;28;20068;-61
2023/07/17 14:31:37;;;;;;;5.47;3.10;;;;;;;;;;5112054;28;20016;-61
2023/07/17 14:34:03;;;;;;;6.27;3.20;;;;;;;;;;5112468;28;20020;-63
2023/07/17 14:36:28;;;;;;;7.70;3.30;;;;;;;;;;5111473;28;20471;-59
2023/07/17 14:38:53;;;;;;;5.30;2.90;;;;;;;;;;5112416;28;20114;-61
2023/07/17 14:41:18;;;;;;;;;;;;;;;;;;5113199;28;20364;-60
2023/07/17 14:43:43;;;;;;;8.55;3.03;;;;;;;;;;5112104;28;19938;-60
2023/07/17 14:46:09;;;;;;;;;;;;;;;;;;5112137;28;20423;-60